Hovedside
METAR-TAF:

METAR-TAF

Lufthavner :

Ørsta-Volda, Norge

Ørsta/Volda lufthamn. Hovden

breddegrad: 62-11N, lengdegrad: 006-04E, høyde over havet: 7 m

Gjeldene værobservasjon

Denne rapporten ble laget for 23 minutter siden, klokken 13:20 UTC
Vind 2 kt fra skiftende retning
Temperatur 4°C
Luftfuktighet 56%
Trykk 1037 hPa
Sikt 10 km eller mer
Spredte skyer i en høyde av 2800 ft
Brutte skyer i en høyde av 5500 ft
regnbyger i nærheten

METAR: ENOV 251320Z VRB02KT 9999 VCSH SCT028 BKN055 04/M04 Q1037 RMK WIND 2175FT 30005KT

Tid: 14:43 (13:43 UTC)


TAF: fraværende

Værobservasjoner og værvarsel for over 4000 flyplasser (METAR- og TAF-rapporter).

Tilgjengelige stasjoner er representert av de røde og gule prikkene på kartet.

Hold musepekeren over prikken for å se navnet på stasjonen.

Klikk så for å se værobservasjoner og -varsler.

For å forandre kartet kan du klikke på den grønne knappen med svart kryss for å zoome inn, på den grønne knappen med strek for å zoome ut, eller på de grønne pilene for å se tilstøtende kart.


METAR-TAF: